Time;durP1;ratioP1;P1;durP2;ratioP2;P2;SDS_P1;SDS_P2;PMS_P1;PMS_P2;Temp;Humidity;BMP_temperature;BMP_pressure;BME280_temperature;BME280_humidity;BME280_pressure;Samples;Min_cycle;Max_cycle;Signal;HPM_P1;HPM_P2
2023/06/15 00:02:22;;;;;;;;;;;17.70;92.60;;;;;;5134180;27;20465;-47
2023/06/15 00:04:47;;;;;;;;;;;17.60;92.90;;;;;;5134266;27;19998;-43
2023/06/15 00:07:13;;;;;;;;;;;17.60;93.20;;;;;;5133485;27;19915;-44
2023/06/15 00:09:38;;;;;;;;;;;17.60;93.20;;;;;;5134135;27;20365;-45
2023/06/15 00:12:04;;;;;;;;;;;17.60;93.00;;;;;;5134064;27;19911;-44
2023/06/15 00:14:30;;;;;;;;;;;17.60;93.00;;;;;;5133335;27;19908;-46
2023/06/15 00:16:55;;;;;;;;;;;17.50;93.40;;;;;;5134092;27;20032;-45
2023/06/15 00:19:21;;;;;;;;;;;17.50;93.20;;;;;;5133241;27;19914;-46
2023/06/15 00:21:48;;;;;;;;;;;17.50;93.00;;;;;;5133918;27;19922;-43
2023/06/15 00:24:16;;;;;;;;;;;17.40;93.40;;;;;;5134015;27;19907;-45
2023/06/15 00:26:43;;;;;;;;;;;17.40;93.20;;;;;;5133089;27;19914;-45
2023/06/15 00:29:09;;;;;;;;;;;17.30;93.40;;;;;;5133919;27;19931;-45
2023/06/15 00:31:35;;;;;;;;;;;17.30;93.30;;;;;;5133730;27;20370;-46
2023/06/15 00:34:01;;;;;;;;;;;17.30;93.30;;;;;;5133246;27;19954;-44
2023/06/15 00:36:26;;;;;;;;;;;17.30;93.20;;;;;;5115108;27;20596;-46
2023/06/15 00:38:52;;;;;;;;;;;17.20;93.50;;;;;;5133790;27;20151;-44
2023/06/15 00:41:17;;;;;;;;;;;17.20;93.70;;;;;;5132773;27;19968;-46
2023/06/15 00:43:43;;;;;;;;;;;17.10;93.60;;;;;;5115214;28;20002;-46
2023/06/15 00:46:09;;;;;;;;;;;17.10;93.50;;;;;;5133798;28;19907;-44
2023/06/15 00:48:35;;;;;;;;;;;17.10;93.60;;;;;;5132710;28;19915;-43
2023/06/15 00:51:00;;;;;;;;;;;17.10;94.00;;;;;;5133733;28;19907;-44
2023/06/15 00:53:26;;;;;;;;;;;17.00;93.70;;;;;;5133481;28;19907;-44
2023/06/15 00:55:51;;;;;;;;;;;17.00;94.00;;;;;;5132099;28;19964;-45
2023/06/15 00:58:17;;;;;;;;;;;16.90;93.40;;;;;;5133170;28;19912;-44
2023/06/15 01:00:48;;;;;;;;;;;16.90;93.90;;;;;;5133260;28;19964;-44
2023/06/15 01:03:15;;;;;;;;;;;16.80;93.90;;;;;;5132527;28;19920;-44
2023/06/15 01:05:44;;;;;;;;;;;16.80;93.90;;;;;;5136611;27;19919;-47
2023/06/15 01:08:10;;;;;;;;;;;16.70;93.90;;;;;;5137451;27;19911;-44
2023/06/15 01:10:36;;;;;;;;;;;16.70;94.10;;;;;;5136650;27;19994;-46
2023/06/15 01:13:03;;;;;;;;;;;16.70;94.10;;;;;;5137523;27;19995;-45
2023/06/15 01:15:28;;;;;;;;;;;16.60;94.20;;;;;;5136656;27;19976;-48
2023/06/15 01:17:56;;;;;;;;;;;16.60;94.20;;;;;;5137534;27;20366;-45
2023/06/15 01:20:53;;;;;;;;;;;16.60;94.30;;;;;;5137329;27;19960;-45
2023/06/15 01:23:25;;;;;;;;;;;16.50;93.80;;;;;;5123706;27;20018;-44
2023/06/15 01:26:03;;;;;;;;;;;16.50;93.90;;;;;;5137303;27;20362;-46
2023/06/15 01:28:30;;;;;;;;;;;16.40;93.80;;;;;;5137139;27;19908;-44
2023/06/15 01:30:56;;;;;;;;;;;16.40;93.80;;;;;;5136408;27;19918;-44
2023/06/15 01:33:22;;;;;;;;;;;16.40;93.90;;;;;;5137104;27;20427;-44
2023/06/15 01:35:47;;;;;;;;;;;16.30;94.00;;;;;;5136869;27;19907;-43
2023/06/15 01:38:13;;;;;;;;;;;16.20;94.50;;;;;;5136350;27;19915;-42
2023/06/15 01:40:42;;;;;;;;;;;16.20;94.80;;;;;;5136891;27;19914;-44
2023/06/15 01:43:11;;;;;;;;;;;16.20;95.00;;;;;;5137005;27;19922;-45
2023/06/15 01:45:38;;;;;;;;;;;16.20;94.90;;;;;;5135916;27;20362;-44
2023/06/15 01:48:04;;;;;;;;;;;16.10;95.40;;;;;;5137232;27;20285;-46
2023/06/15 01:50:30;;;;;;;;;;;16.10;95.20;;;;;;5136795;27;19908;-43
2023/06/15 01:52:56;;;;;;;;;;;16.10;95.10;;;;;;5136052;27;19918;-45
2023/06/15 01:55:22;;;;;;;;;;;16.00;94.80;;;;;;5136777;27;19907;-44
2023/06/15 01:57:47;;;;;;;;;;;16.00;94.70;;;;;;5135862;27;20392;-43
2023/06/15 02:00:13;;;;;;;;;;;15.90;95.00;;;;;;5136579;27;19908;-49
2023/06/15 02:02:38;;;;;;;;;;;15.90;95.10;;;;;;5136422;27;19916;-45
2023/06/15 02:05:06;;;;;;;;;;;15.90;95.60;;;;;;5135543;27;19980;-46
2023/06/15 02:07:32;;;;;;;;;;;15.90;95.20;;;;;;5128052;27;19912;-43
2023/06/15 02:09:57;;;;;;;;;;;15.80;95.40;;;;;;5136039;27;20362;-45
2023/06/15 02:12:22;;;;;;;;;;;15.80;95.20;;;;;;5135496;27;19962;-44
2023/06/15 02:14:49;;;;;;;;;;;15.70;95.40;;;;;;5136204;27;19915;-46
2023/06/15 02:17:17;;;;;;;;;;;15.70;95.20;;;;;;5135819;27;19908;-47
2023/06/15 02:19:46;;;;;;;;;;;15.70;95.40;;;;;;5135406;27;20016;-44
2023/06/15 02:22:12;;;;;;;;;;;15.70;95.60;;;;;;5136071;27;19915;-44
2023/06/15 02:24:37;;;;;;;;;;;15.70;95.70;;;;;;5136128;27;19959;-46
2023/06/15 02:27:03;;;;;;;;;;;15.60;95.70;;;;;;5135355;27;19937;-45
2023/06/15 02:29:29;;;;;;;;;;;15.60;95.80;;;;;;5136030;27;20281;-43
2023/06/15 02:31:54;;;;;;;;;;;15.70;95.80;;;;;;5136151;27;20378;-44
2023/06/15 02:34:20;;;;;;;;;;;15.60;96.10;;;;;;5135344;27;19959;-45
2023/06/15 02:36:46;;;;;;;;;;;15.60;96.30;;;;;;5135625;27;19920;-45
2023/06/15 02:39:12;;;;;;;;;;;15.60;96.60;;;;;;5136136;27;19907;-46
2023/06/15 02:41:38;;;;;;;;;;;15.60;96.40;;;;;;5134941;27;19968;-44
2023/06/15 02:44:04;;;;;;;;;;;15.60;96.90;;;;;;5135891;27;19907;-45
2023/06/15 02:46:30;;;;;;;;;;;15.60;96.30;;;;;;5135718;27;19907;-45
2023/06/15 02:48:56;;;;;;;;;;;15.60;96.30;;;;;;5134938;27;19907;-44
2023/06/15 02:51:22;;;;;;;;;;;15.50;96.10;;;;;;5135660;27;19915;-44
2023/06/15 02:53:48;;;;;;;;;;;15.50;96.10;;;;;;5135629;27;20281;-43
2023/06/15 02:56:18;;;;;;;;;;;15.50;96.40;;;;;;5134908;27;20006;-45
2023/06/15 02:58:54;;;;;;;;;;;15.40;96.40;;;;;;5135451;27;20366;-44
2023/06/15 03:01:21;;;;;;;;;;;15.40;96.30;;;;;;5134760;27;19915;-45
2023/06/15 03:03:47;;;;;;;;;;;15.40;96.50;;;;;;5135274;27;19915;-46
2023/06/15 03:06:14;;;;;;;;;;;15.40;96.70;;;;;;5135454;27;20274;-47
2023/06/15 03:08:40;;;;;;;;;;;15.30;96.50;;;;;;5134412;27;19915;-44
2023/06/15 03:11:06;;;;;;;;;;;15.30;96.80;;;;;;5135366;27;19911;-47
2023/06/15 03:13:32;;;;;;;;;;;15.30;96.60;;;;;;5134286;27;19911;-45
2023/06/15 03:16:00;;;;;;;;;;;15.30;96.60;;;;;;5134053;27;20015;-45
2023/06/15 03:18:27;;;;;;;;;;;15.30;97.00;;;;;;5135057;27;20439;-46
2023/06/15 03:20:52;;;;;;;;;;;15.30;96.70;;;;;;5134864;27;19915;-45
2023/06/15 03:23:18;;;;;;;;;;;15.20;96.60;;;;;;5134033;27;19919;-45
2023/06/15 03:25:44;;;;;;;;;;;15.20;96.80;;;;;;5134625;27;19918;-45
2023/06/15 03:28:10;;;;;;;;;;;15.20;97.30;;;;;;5133747;27;19908;-43
2023/06/15 03:30:36;;;;;;;;;;;15.10;97.30;;;;;;5134039;27;19912;-43
2023/06/15 03:33:02;;;;;;;;;;;15.10;97.40;;;;;;5134571;27;20002;-45
2023/06/15 03:35:28;;;;;;;;;;;15.10;97.40;;;;;;5134389;27;19992;-44
2023/06/15 03:37:53;;;;;;;;;;;15.10;97.40;;;;;;5133531;27;19919;-45
2023/06/15 03:40:19;;;;;;;;;;;15.00;97.50;;;;;;5134163;27;19912;-46
2023/06/15 03:42:44;;;;;;;;;;;15.00;97.30;;;;;;5134462;27;20384;-45
2023/06/15 03:45:10;;;;;;;;;;;15.00;97.90;;;;;;5133831;27;20076;-44
2023/06/15 03:47:35;;;;;;;;;;;15.00;97.90;;;;;;5134450;27;19911;-45
2023/06/15 03:50:01;;;;;;;;;;;15.00;97.90;;;;;;5134765;27;19958;-44
2023/06/15 03:52:27;;;;;;;;;;;15.10;98.20;;;;;;5133671;27;20361;-43
2023/06/15 03:54:53;;;;;;;;;;;15.10;98.20;;;;;;5134466;27;19959;-44
2023/06/15 03:57:18;;;;;;;;;;;15.10;98.40;;;;;;5133576;27;19947;-44
2023/06/15 03:59:44;;;;;;;;;;;15.10;98.80;;;;;;5134258;27;19914;-44
2023/06/15 04:02:09;;;;;;;;;;;15.10;99.00;;;;;;5134157;27;20362;-43
2023/06/15 04:04:35;;;;;;;;;;;15.10;98.80;;;;;;5135754;27;20322;-43
2023/06/15 04:07:00;;;;;;;;;;;15.20;98.90;;;;;;5129577;27;20262;-45
2023/06/15 04:09:26;;;;;;;;;;;15.20;99.10;;;;;;5125379;27;19916;-44
2023/06/15 04:11:52;;;;;;;;;;;15.20;99.40;;;;;;5121744;27;19915;-45
2023/06/15 04:14:18;;;;;;;;;;;15.30;99.70;;;;;;5119972;27;19912;-45
2023/06/15 04:16:44;;;;;;;;;;;15.30;99.50;;;;;;5119089;27;19912;-46
2023/06/15 04:19:10;;;;;;;;;;;15.30;99.80;;;;;;5123745;27;19908;-45
2023/06/15 04:21:36;;;;;;;;;;;15.30;99.50;;;;;;5123194;27;19968;-45
2023/06/15 04:24:02;;;;;;;;;;;15.30;99.70;;;;;;5123636;27;20006;-44
2023/06/15 04:26:28;;;;;;;;;;;15.30;99.80;;;;;;5120976;27;19954;-44
2023/06/15 04:28:57;;;;;;;;;;;15.40;99.90;;;;;;5120924;27;19912;-45
2023/06/15 04:31:24;;;;;;;;;;;15.40;99.90;;;;;;5123103;27;19962;-43
2023/06/15 04:33:50;;;;;;;;;;;15.40;99.90;;;;;;5123170;27;19932;-45
2023/06/15 04:36:16;;;;;;;;;;;15.40;99.90;;;;;;5122281;27;19954;-44
2023/06/15 04:38:46;;;;;;;;;;;15.50;99.90;;;;;;5113335;28;19919;-44
2023/06/15 04:41:16;;;;;;;;;;;15.50;99.90;;;;;;5129524;27;19956;-46
2023/06/15 04:43:43;;;;;;;;;;;15.50;99.90;;;;;;5133221;27;19912;-44
2023/06/15 04:46:08;;;;;;;;;;;15.50;99.90;;;;;;5133496;28;19915;-43
2023/06/15 04:48:34;;;;;;;;;;;15.60;99.90;;;;;;5132625;28;19965;-44
2023/06/15 04:50:59;;;;;;;;;;;15.60;99.90;;;;;;5133481;28;19961;-46
2023/06/15 04:53:25;;;;;;;;;;;15.60;99.90;;;;;;5132837;28;19964;-46
2023/06/15 04:55:51;;;;;;;;;;;15.70;99.90;;;;;;5132374;28;19915;-45
2023/06/15 04:58:17;;;;;;;;;;;15.70;99.90;;;;;;5133117;28;20003;-45
2023/06/15 05:00:43;;;;;;;;;;;15.70;99.90;;;;;;5132441;28;20094;-43
2023/06/15 05:03:08;;;;;;;;;;;15.70;99.90;;;;;;5133588;28;19916;-46
2023/06/15 05:05:34;;;;;;;;;;;15.80;99.90;;;;;;5133307;28;19929;-43
2023/06/15 05:07:59;;;;;;;;;;;15.80;99.90;;;;;;5128779;28;19919;-43
2023/06/15 05:10:25;;;;;;;;;;;15.80;99.90;;;;;;5124681;28;19952;-48
2023/06/15 05:12:51;;;;;;;;;;;15.90;99.90;;;;;;5112827;28;19908;-44
2023/06/15 05:15:17;;;;;;;;;;;15.90;99.90;;;;;;5119375;28;19951;-48
2023/06/15 05:17:43;;;;;;;;;;;16.00;99.90;;;;;;5132849;28;19955;-45
2023/06/15 05:20:09;;;;;;;;;;;16.00;99.90;;;;;;5132060;28;19915;-44
2023/06/15 05:22:34;;;;;;;;;;;16.10;99.90;;;;;;5128064;28;19919;-45
2023/06/15 05:25:00;;;;;;;;;;;16.10;99.90;;;;;;5132801;28;19907;-44
2023/06/15 05:27:25;;;;;;;;;;;16.10;99.90;;;;;;5128292;28;19943;-44
2023/06/15 05:29:51;;;;;;;;;;;16.20;99.90;;;;;;5128590;28;20261;-44
2023/06/15 05:32:16;;;;;;;;;;;16.20;99.90;;;;;;5128591;28;20002;-45
2023/06/15 05:34:42;;;;;;;;;;;16.20;99.90;;;;;;5123118;28;19916;-45
2023/06/15 05:37:07;;;;;;;;;;;16.30;99.90;;;;;;5128696;28;19926;-43
2023/06/15 05:39:32;;;;;;;;;;;16.30;99.90;;;;;;5132439;28;20380;-44
2023/06/15 05:41:58;;;;;;;;;;;16.40;99.90;;;;;;5128007;28;19930;-44
2023/06/15 05:44:23;;;;;;;;;;;16.50;99.90;;;;;;5125840;28;20010;-45
2023/06/15 05:46:50;;;;;;;;;;;16.50;99.90;;;;;;5121950;28;19919;-48
2023/06/15 05:49:16;;;;;;;;;;;16.60;99.90;;;;;;5123889;28;19938;-44
2023/06/15 05:51:41;;;;;;;;;;;16.60;99.90;;;;;;5120638;27;20780;-45
2023/06/15 05:54:07;;;;;;;;;;;16.60;99.90;;;;;;5135268;27;19911;-46
2023/06/15 05:56:32;;;;;;;;;;;16.70;99.90;;;;;;5133482;27;19951;-47
2023/06/15 05:58:58;;;;;;;;;;;16.70;99.90;;;;;;5135443;27;19907;-47
2023/06/15 06:01:24;;;;;;;;;;;16.80;99.60;;;;;;5135783;27;20258;-45
2023/06/15 06:03:49;;;;;;;;;;;16.80;99.70;;;;;;5135418;27;19915;-50
2023/06/15 06:06:15;;;;;;;;;;;16.90;99.80;;;;;;5135310;27;19912;-50
2023/06/15 06:08:40;;;;;;;;;;;17.00;99.80;;;;;;5135646;27;19916;-44
2023/06/15 06:11:07;;;;;;;;;;;17.00;99.70;;;;;;5134984;27;19922;-44
2023/06/15 06:13:36;;;;;;;;;;;17.10;99.60;;;;;;5135711;27;19915;-43
2023/06/15 06:16:01;;;;;;;;;;;17.10;99.50;;;;;;5135847;27;20418;-45
2023/06/15 06:18:27;;;;;;;;;;;17.20;98.50;;;;;;5134709;27;19907;-47
2023/06/15 06:20:53;;;;;;;;;;;17.20;98.20;;;;;;5134187;27;19996;-48
2023/06/15 06:23:18;;;;;;;;;;;17.40;98.10;;;;;;5133061;27;19920;-44
2023/06/15 06:25:44;;;;;;;;;;;17.40;97.90;;;;;;5134569;27;19907;-45
2023/06/15 06:28:09;;;;;;;;;;;17.50;97.40;;;;;;5134940;27;20313;-45
2023/06/15 06:30:35;;;;;;;;;;;17.50;97.10;;;;;;5135081;27;19912;-49
2023/06/15 06:33:02;;;;;;;;;;;17.60;97.00;;;;;;5134582;27;19915;-44
2023/06/15 06:35:28;;;;;;;;;;;17.60;96.80;;;;;;5133616;27;19995;-45
2023/06/15 06:37:53;;;;;;;;;;;17.80;96.20;;;;;;5133997;27;19962;-46
2023/06/15 06:40:19;;;;;;;;;;;17.80;95.80;;;;;;5134045;27;19915;-47
2023/06/15 06:42:44;;;;;;;;;;;17.90;95.70;;;;;;5134950;27;19915;-47
2023/06/15 06:45:10;;;;;;;;;;;18.00;95.80;;;;;;5135279;27;20408;-46
2023/06/15 06:47:35;;;;;;;;;;;18.00;95.00;;;;;;5128433;27;19976;-48
2023/06/15 06:50:01;;;;;;;;;;;18.10;94.70;;;;;;5131242;27;19916;-43
2023/06/15 06:52:26;;;;;;;;;;;18.20;94.40;;;;;;5132695;27;19915;-45
2023/06/15 06:54:52;;;;;;;;;;;18.20;94.20;;;;;;5131109;27;19964;-44
2023/06/15 06:57:17;;;;;;;;;;;18.30;94.00;;;;;;5127481;27;20002;-45
2023/06/15 06:59:42;;;;;;;;;;;18.40;93.40;;;;;;5126942;27;19918;-48
2023/06/15 07:02:08;;;;;;;;;;;18.40;93.60;;;;;;5125849;27;20362;-47
2023/06/15 07:04:33;;;;;;;;;;;18.50;92.90;;;;;;5125499;27;19916;-46
2023/06/15 07:07:00;;;;;;;;;;;18.60;92.90;;;;;;5133045;27;19907;-48
2023/06/15 07:09:25;;;;;;;;;;;18.70;92.70;;;;;;5135456;27;20365;-44
2023/06/15 07:11:50;;;;;;;;;;;18.80;92.60;;;;;;5135998;27;20018;-45
2023/06/15 07:14:16;;;;;;;;;;;18.80;92.70;;;;;;5135401;27;20281;-44
2023/06/15 07:16:41;;;;;;;;;;;18.90;93.00;;;;;;5135850;27;19907;-44
2023/06/15 07:19:07;;;;;;;;;;;19.00;92.60;;;;;;5134819;27;19964;-45
2023/06/15 07:21:32;;;;;;;;;;;19.10;92.30;;;;;;5121359;27;19924;-45
2023/06/15 07:23:58;;;;;;;;;;;19.20;91.80;;;;;;5115312;28;20226;-45
2023/06/15 07:26:23;;;;;;;;;;;19.30;91.40;;;;;;5134475;27;19930;-44
2023/06/15 07:28:49;;;;;;;;;;;19.40;91.40;;;;;;5135262;27;19907;-45
2023/06/15 07:31:14;;;;;;;;;;;19.50;90.90;;;;;;5119904;27;20013;-44
2023/06/15 07:33:40;;;;;;;;;;;19.50;91.10;;;;;;5114899;28;19995;-45
2023/06/15 07:36:06;;;;;;;;;;;19.60;91.20;;;;;;5114281;28;20365;-46
2023/06/15 07:38:32;;;;;;;;;;;19.70;91.00;;;;;;5125484;27;20362;-45
2023/06/15 07:40:57;;;;;;;;;;;19.70;90.90;;;;;;5135580;27;19911;-46
2023/06/15 07:43:23;;;;;;;;;;;19.90;90.50;;;;;;5134671;27;19935;-45
2023/06/15 07:45:48;;;;;;;;;;;19.90;90.60;;;;;;5135221;27;19994;-44
2023/06/15 07:48:13;;;;;;;;;;;20.00;90.50;;;;;;5135306;27;19907;-49
2023/06/15 07:50:39;;;;;;;;;;;20.10;89.10;;;;;;5134657;27;19914;-44
2023/06/15 07:53:05;;;;;;;;;;;20.10;88.20;;;;;;5135279;27;20254;-44
2023/06/15 07:55:30;;;;;;;;;;;20.30;88.10;;;;;;5135082;27;20048;-44
2023/06/15 07:57:56;;;;;;;;;;;20.30;88.60;;;;;;5134741;27;19907;-47
2023/06/15 08:00:21;;;;;;;;;;;20.40;88.50;;;;;;5134782;27;19963;-45
2023/06/15 08:02:48;;;;;;;;;;;20.40;87.20;;;;;;5134922;27;20330;-45
2023/06/15 08:05:14;;;;;;;;;;;20.50;87.10;;;;;;5134523;27;20006;-45
2023/06/15 08:07:39;;;;;;;;;;;20.60;86.90;;;;;;5134566;27;19966;-44
2023/06/15 08:10:06;;;;;;;;;;;20.70;85.70;;;;;;5134711;27;20010;-45
2023/06/15 08:12:31;;;;;;;;;;;20.80;85.80;;;;;;5134272;27;20422;-44
2023/06/15 08:14:57;;;;;;;;;;;20.80;83.90;;;;;;5134361;27;19938;-47
2023/06/15 08:17:23;;;;;;;;;;;20.90;83.60;;;;;;5134802;27;20270;-44
2023/06/15 08:19:49;;;;;;;;;;;21.00;82.50;;;;;;5133756;27;19908;-44
2023/06/15 08:22:15;;;;;;;;;;;21.10;83.70;;;;;;5131165;27;19926;-45
2023/06/15 08:24:40;;;;;;;;;;;21.20;81.90;;;;;;5113622;28;19914;-44
2023/06/15 08:27:06;;;;;;;;;;;21.20;80.50;;;;;;5114023;28;19999;-45
2023/06/15 08:29:31;;;;;;;;;;;21.30;81.70;;;;;;5118360;27;20286;-45
2023/06/15 08:31:57;;;;;;;;;;;21.30;82.00;;;;;;5115798;27;19916;-45
2023/06/15 08:34:22;;;;;;;;;;;21.40;82.50;;;;;;5113976;28;19907;-46
2023/06/15 08:36:49;;;;;;;;;;;21.50;82.70;;;;;;5113642;28;19957;-45
2023/06/15 08:39:14;;;;;;;;;;;21.60;81.60;;;;;;5128860;27;19911;-44
2023/06/15 08:41:43;;;;;;;;;;;21.80;81.60;;;;;;5132950;27;19980;-46
2023/06/15 08:44:09;;;;;;;;;;;21.80;79.60;;;;;;5132229;27;19907;-45
2023/06/15 08:46:35;;;;;;;;;;;21.80;79.60;;;;;;5133874;28;19907;-47
2023/06/15 08:49:02;;;;;;;;;;;21.90;79.10;;;;;;5132653;28;19954;-44
2023/06/15 08:51:28;;;;;;;;;;;21.90;78.10;;;;;;5127016;27;19911;-47
2023/06/15 08:53:57;;;;;;;;;;;22.00;77.10;;;;;;5131289;28;19908;-47
2023/06/15 08:56:22;;;;;;;;;;;22.10;77.40;;;;;;5129978;28;19937;-44
2023/06/15 08:58:51;;;;;;;;;;;22.20;76.80;;;;;;5133502;28;19908;-47
2023/06/15 09:01:23;;;;;;;;;;;22.20;76.40;;;;;;5127371;28;20014;-44
2023/06/15 09:03:52;;;;;;;;;;;22.30;75.70;;;;;;5116313;28;19919;-45
2023/06/15 09:06:19;;;;;;;;;;;22.40;74.40;;;;;;5121446;28;19922;-47
2023/06/15 09:08:45;;;;;;;;;;;22.50;73.60;;;;;;5114061;28;20354;-44
2023/06/15 09:11:10;;;;;;;;;;;22.60;75.80;;;;;;5130893;28;19912;-45
2023/06/15 09:13:36;;;;;;;;;;;22.70;74.20;;;;;;5116896;28;19939;-48
2023/06/15 09:16:02;;;;;;;;;;;22.80;74.30;;;;;;5120182;28;20265;-45
2023/06/15 09:18:28;;;;;;;;;;;22.80;74.00;;;;;;5112787;28;19912;-44
2023/06/15 09:21:00;;;;;;;;;;;22.90;73.20;;;;;;5127577;28;20076;-45
2023/06/15 09:23:25;;;;;;;;;;;23.00;73.90;;;;;;5133133;28;20002;-45
2023/06/15 09:25:52;;;;;;;;;;;23.00;73.30;;;;;;5123685;27;20006;-46
2023/06/15 09:28:22;;;;;;;;;;;23.10;74.10;;;;;;5121624;27;20061;-46
2023/06/15 09:30:52;;;;;;;;;;;23.30;74.50;;;;;;5132460;27;19911;-47
2023/06/15 09:33:18;;;;;;;;;;;23.40;73.30;;;;;;5126404;27;19911;-45
2023/06/15 09:35:59;;;;;;;;;;;23.50;71.30;;;;;;5131551;27;19907;-45
2023/06/15 09:38:29;;;;;;;;;;;23.60;70.00;;;;;;5137745;27;20342;-45
2023/06/15 09:40:55;;;;;;;;;;;23.70;72.20;;;;;;5130482;27;19912;-45
2023/06/15 09:43:20;;;;;;;;;;;23.80;71.80;;;;;;5134604;27;20154;-45
2023/06/15 09:45:52;;;;;;;;;;;23.80;71.80;;;;;;5146164;27;19927;-45
2023/06/15 09:48:18;;;;;;;;;;;24.00;70.50;;;;;;5136068;27;19943;-45
2023/06/15 09:50:48;;;;;;;;;;;24.10;68.70;;;;;;5133148;27;19978;-45
2023/06/15 09:53:16;;;;;;;;;;;24.10;66.10;;;;;;5135964;27;19908;-47
2023/06/15 09:55:43;;;;;;;;;;;24.20;66.50;;;;;;5136048;27;19912;-45
2023/06/15 09:58:12;;;;;;;;;;;24.20;64.70;;;;;;5136112;27;19908;-46
2023/06/15 10:00:37;;;;;;;;;;;24.20;65.30;;;;;;5135445;27;19925;-45
2023/06/15 10:03:03;;;;;;;;;;;24.20;65.40;;;;;;5135015;27;19915;-45
2023/06/15 10:05:32;;;;;;;;;;;24.20;66.40;;;;;;5135859;27;19912;-46
2023/06/15 10:07:58;;;;;;;;;;;24.30;67.50;;;;;;5120593;27;19919;-45
2023/06/15 10:10:24;;;;;;;;;;;24.40;67.60;;;;;;5133765;27;20417;-45
2023/06/15 10:12:52;;;;;;;;;;;24.60;66.90;;;;;;5121275;27;19908;-45
2023/06/15 10:15:20;;;;;;;;;;;24.70;64.90;;;;;;5131069;27;19911;-48
2023/06/15 10:17:47;;;;;;;;;;;24.80;64.20;;;;;;5134552;27;19918;-45
2023/06/15 10:20:16;;;;;;;;;;;24.80;63.60;;;;;;5134416;27;20013;-46
2023/06/15 10:23:04;;;;;;;;;;;24.80;62.40;;;;;;5125527;27;19919;-45
2023/06/15 10:25:30;;;;;;;;;;;24.80;62.50;;;;;;5132023;27;19964;-45
2023/06/15 10:27:56;;;;;;;;;;;24.80;61.50;;;;;;5136293;27;19908;-45
2023/06/15 10:30:25;;;;;;;;;;;25.00;63.20;;;;;;5135730;27;19912;-45
2023/06/15 10:33:04;;;;;;;;;;;25.10;63.20;;;;;;5135284;27;19922;-45
2023/06/15 10:35:39;;;;;;;;;;;25.10;61.80;;;;;;5135493;27;20382;-46
2023/06/15 10:38:24;;;;;;;;;;;25.20;61.70;;;;;;5135221;27;19924;-46
2023/06/15 10:40:50;;;;;;;;;;;25.20;60.50;;;;;;5135543;27;19950;-44
2023/06/15 10:43:25;;;;;;;;;;;25.40;62.50;;;;;;5135327;27;19927;-45
2023/06/15 10:45:52;;;;;;;;;;;25.60;63.40;;;;;;5135281;27;20293;-44
2023/06/15 10:48:26;;;;;;;;;;;25.60;62.10;;;;;;5135873;27;19922;-44
2023/06/15 10:50:52;;;;;;;;;;;25.60;61.50;;;;;;5134481;27;19911;-46
2023/06/15 10:53:25;;;;;;;;;;;25.60;61.60;;;;;;5132677;27;19980;-44
2023/06/15 10:55:55;;;;;;;;;;;25.60;60.60;;;;;;5129707;27;19935;-44
2023/06/15 10:58:21;;;;;;;;;;;25.50;59.80;;;;;;5127570;27;20015;-45
2023/06/15 11:01:04;;;;;;;;;;;25.50;60.10;;;;;;5135729;27;19911;-45
2023/06/15 11:03:31;;;;;;;;;;;25.40;60.40;;;;;;5130946;27;20266;-46
2023/06/15 11:06:05;;;;;;;;;;;25.40;59.30;;;;;;5126688;27;19915;-46
2023/06/15 11:08:31;;;;;;;;;;;25.40;56.70;;;;;;5135112;27;19912;-47
2023/06/15 11:10:57;;;;;;;;;;;25.50;60.60;;;;;;5135076;27;20307;-46
2023/06/15 11:13:24;;;;;;;;;;;25.50;58.10;;;;;;5128728;27;20424;-46
2023/06/15 11:16:04;;;;;;;;;;;25.50;57.90;;;;;;5118762;27;19919;-45
2023/06/15 11:18:31;;;;;;;;;;;25.50;59.10;;;;;;5119032;27;19998;-44
2023/06/15 11:21:00;;;;;;;;;;;25.60;58.80;;;;;;5117521;27;19915;-46
2023/06/15 11:23:32;;;;;;;;;;;25.70;59.60;;;;;;5135846;27;19972;-46
2023/06/15 11:26:01;;;;;;;;;;;25.80;59.00;;;;;;5132758;27;19914;-47
2023/06/15 11:28:30;;;;;;;;;;;26.00;59.40;;;;;;5114688;28;19908;-47
2023/06/15 11:31:00;;;;;;;;;;;26.10;58.60;;;;;;5114331;28;19908;-48
2023/06/15 11:33:30;;;;;;;;;;;26.10;58.50;;;;;;5122838;27;19907;-43
2023/06/15 11:35:56;;;;;;;;;;;26.20;57.50;;;;;;5134964;27;19908;-45
2023/06/15 11:38:29;;;;;;;;;;;26.10;56.30;;;;;;5135798;27;19954;-43
2023/06/15 11:41:02;;;;;;;;;;;26.10;55.20;;;;;;5135327;27;19947;-44
2023/06/15 11:43:30;;;;;;;;;;;26.10;57.20;;;;;;5133806;27;20303;-46
2023/06/15 11:45:56;;;;;;;;;;;26.10;57.20;;;;;;5135572;27;19930;-46
2023/06/15 11:48:21;;;;;;;;;;;26.00;57.30;;;;;;5134672;27;20421;-45
2023/06/15 11:50:47;;;;;;;;;;;26.10;56.30;;;;;;5126704;27;19915;-45
2023/06/15 11:53:18;;;;;;;;;;;26.10;57.10;;;;;;5134921;27;19908;-46
2023/06/15 11:55:44;;;;;;;;;;;26.10;57.60;;;;;;5134510;27;19912;-45
2023/06/15 11:58:10;;;;;;;;;;;26.20;56.90;;;;;;5134679;27;19912;-45
2023/06/15 12:00:35;;;;;;;;;;;26.40;57.20;;;;;;5135016;27;19934;-45
2023/06/15 12:03:07;;;;;;;;;;;26.40;56.70;;;;;;5134474;27;19915;-45
2023/06/15 12:05:32;;;;;;;;;;;26.50;56.40;;;;;;5134657;27;20014;-46
2023/06/15 12:07:59;;;;;;;;;;;26.50;56.90;;;;;;5134394;27;19978;-47
2023/06/15 12:10:25;;;;;;;;;;;26.70;57.20;;;;;;5134203;27;19907;-45
2023/06/15 12:12:51;;;;;;;;;;;26.70;56.50;;;;;;5134737;27;20270;-45
2023/06/15 12:15:17;;;;;;;;;;;26.80;55.80;;;;;;5134886;27;20316;-47
2023/06/15 12:17:43;;;;;;;;;;;26.80;55.00;;;;;;5134262;27;19908;-45
2023/06/15 12:20:11;;;;;;;;;;;26.80;54.10;;;;;;5125332;27;19907;-46
2023/06/15 12:22:40;;;;;;;;;;;27.00;55.80;;;;;;5134601;27;19919;-44
2023/06/15 12:25:06;;;;;;;;;;;27.20;56.50;;;;;;5134034;27;19907;-51
2023/06/15 12:27:31;;;;;;;;;;;27.40;55.30;;;;;;5122463;27;20358;-46
2023/06/15 12:30:10;;;;;;;;;;;27.50;54.50;;;;;;5119500;27;19916;-45
2023/06/15 12:32:35;;;;;;;;;;;27.70;52.90;;;;;;5118530;27;19961;-46
2023/06/15 12:35:01;;;;;;;;;;;27.90;54.80;;;;;;5115912;28;19947;-44
2023/06/15 12:37:29;;;;;;;;;;;28.10;53.70;;;;;;5119471;27;19942;-47
2023/06/15 12:39:55;;;;;;;;;;;28.10;51.80;;;;;;5128396;27;20002;-46
2023/06/15 12:42:22;;;;;;;;;;;27.80;52.40;;;;;;5129610;27;20018;-49
2023/06/15 12:44:47;;;;;;;;;;;27.60;52.00;;;;;;5125153;27;20026;-45
2023/06/15 12:47:13;;;;;;;;;;;27.70;52.80;;;;;;5133846;27;20397;-44
2023/06/15 12:49:38;;;;;;;;;;;28.00;53.20;;;;;;5132920;28;19915;-45
2023/06/15 12:52:04;;;;;;;;;;;28.10;51.50;;;;;;5133355;27;19915;-44
2023/06/15 12:54:29;;;;;;;;;;;27.80;52.20;;;;;;5133444;28;19994;-45
2023/06/15 12:56:55;;;;;;;;;;;27.50;52.10;;;;;;5133809;27;19908;-45
2023/06/15 12:59:20;;;;;;;;;;;27.30;52.40;;;;;;5133428;28;19990;-47
2023/06/15 13:01:46;;;;;;;;;;;27.70;53.30;;;;;;5137400;27;19922;-45
2023/06/15 13:04:11;;;;;;;;;;;28.20;53.00;;;;;;5138516;27;19911;-45
2023/06/15 13:06:37;;;;;;;;;;;28.60;53.20;;;;;;5137293;27;19919;-47
2023/06/15 13:09:02;;;;;;;;;;;29.00;52.40;;;;;;5137772;27;19911;-45
2023/06/15 13:11:28;;;;;;;;;;;29.20;52.50;;;;;;5136382;27;20317;-44
2023/06/15 13:13:54;;;;;;;;;;;29.70;51.90;;;;;;5135261;27;19914;-47
2023/06/15 13:16:19;;;;;;;;;;;29.90;51.50;;;;;;5137321;27;20277;-46
2023/06/15 13:18:45;;;;;;;;;;;29.70;50.50;;;;;;5137388;27;20015;-47
2023/06/15 13:21:12;;;;;;;;;;;29.20;49.70;;;;;;5137305;27;19907;-46
2023/06/15 13:23:37;;;;;;;;;;;29.20;50.70;;;;;;5130240;27;19958;-48
2023/06/15 13:26:03;;;;;;;;;;;29.50;51.50;;;;;;5137076;27;20568;-46
2023/06/15 13:28:29;;;;;;;;;;;29.60;51.20;;;;;;5136956;27;19907;-46
2023/06/15 13:30:55;;;;;;;;;;;29.80;51.90;;;;;;5137250;27;19912;-45
2023/06/15 13:33:20;;;;;;;;;;;30.00;51.30;;;;;;5136716;27;19986;-46
2023/06/15 13:35:46;;;;;;;;;;;29.80;50.80;;;;;;5135439;27;19954;-43
2023/06/15 13:38:12;;;;;;;;;;;29.90;50.40;;;;;;5120107;27;20030;-45
2023/06/15 13:40:37;;;;;;;;;;;30.30;50.80;;;;;;5119758;27;20480;-45
2023/06/15 13:43:02;;;;;;;;;;;30.50;50.00;;;;;;5133955;27;19915;-47
2023/06/15 13:45:28;;;;;;;;;;;30.80;49.30;;;;;;5121277;27;19912;-47
2023/06/15 13:47:54;;;;;;;;;;;31.20;50.50;;;;;;5137665;27;20347;-47
2023/06/15 13:50:21;;;;;;;;;;;31.00;48.10;;;;;;5137245;27;19907;-44
2023/06/15 13:52:47;;;;;;;;;;;31.00;48.50;;;;;;5130130;27;19912;-44
2023/06/15 13:55:13;;;;;;;;;;;30.90;47.40;;;;;;5117541;27;19911;-48
2023/06/15 13:57:38;;;;;;;;;;;30.60;48.00;;;;;;5136863;27;20235;-46
2023/06/15 14:00:05;;;;;;;;;;;30.00;49.00;;;;;;5133038;27;20359;-46
2023/06/15 14:02:30;;;;;;;;;;;29.60;49.60;;;;;;5116086;28;19923;-45
2023/06/15 14:04:56;;;;;;;;;;;29.20;49.80;;;;;;5122248;27;19912;-44
2023/06/15 14:07:22;;;;;;;;;;;28.80;49.50;;;;;;5136169;27;19911;-46
2023/06/15 14:09:48;;;;;;;;;;;28.50;49.60;;;;;;5127985;27;19911;-45
2023/06/15 14:12:14;;;;;;;;;;;28.50;50.10;;;;;;5115285;27;20080;-47
2023/06/15 14:14:40;;;;;;;;;;;29.10;51.60;;;;;;5116652;27;20005;-43